ルアンダ の空港の天気 - METARとTAF

ルアンダ国際空港 ( FNLU / LAD ) - アンゴラ ルアンダ
飛行場実況気象(Metar)
観測時間05/27 01:00 WAT (05/27 00:00 UTC)
風向・風速不定 1m/s
視程10km以上
天気現象
少しの雲 雲底高度 610m
気温24℃
湿度83%
気圧1012hPa
METARFNLU 270000Z VRB02KT 9999 FEW020 24/21 Q1012 NOSIG
過去の天気等 Google飛行場航空写真 Wunderground天気予報

過去48時間のMETAR

飛行場予報(TAF)
発表時間: 5/27 00:00 WAT (5/26 23:00 UTC)
予報対象時間: 27日1時 WAT ~ 28日7時 WAT
風向・風速南 3m/s
視程7000m
全天の4割程度の雲 雲底高度 610m
27日5時 WAT ~ 27日9時 WAT に一時的に
風向・風速不定 2m/s
少しの雲 雲底高度 490m
全天の8割程度の雲 雲底高度 610m
27日10時 WAT ~ 27日13時 WAT に徐々に
視程9000m
少しの雲 雲底高度 610m
TAF FNLU 262300Z 2700/2806 18006KT 7000 SCT020
TEMPO 2704/2708 VRB03KT FEW016 BKN020
BECMG 2709/2712 9000 FEW020